Time;durP1;ratioP1;P1;durP2;ratioP2;P2;SDS_P1;SDS_P2;PMS_P1;PMS_P2;Temp;Humidity;BMP_temperature;BMP_pressure;BME280_temperature;BME280_humidity;BME280_pressure;Samples;Min_cycle;Max_cycle;Signal;HPM_P1;HPM_P2
2024/03/07 00:00:01;;;;;;;;;;;;;;;7.81;100.00;94563.75;10326545;28;20365;-77
2024/03/07 00:05:01;;;;;;;;;;;;;;;7.76;100.00;94561.03;10329650;28;19929;-76
2024/03/07 00:10:03;;;;;;;0.00;0.00;;;;;;;7.80;100.00;94560.28;10317094;28;20444;-80
2024/03/07 00:15:04;;;;;;;0.00;0.00;;;;;;;7.79;100.00;94558.66;10286823;28;20243;-80
2024/03/07 00:20:08;;;;;;;0.00;0.00;;;;;;;7.81;100.00;94567.22;10285936;28;20030;-80
2024/03/07 00:25:09;;;;;;;0.00;0.00;;;;;;;7.79;100.00;94558.66;10282614;28;20027;-81
2024/03/07 00:30:10;;;;;;;0.00;0.00;;;;;;;7.62;100.00;94549.97;10266143;28;20101;-80
2024/03/07 00:35:10;;;;;;;0.00;0.00;;;;;;;7.68;100.00;94540.94;10284177;28;20681;-80
2024/03/07 00:40:11;;;;;;;;;;;;;;;7.74;100.00;94547.91;10266433;28;20303;-77
2024/03/07 00:45:11;;;;;;;;;;;;;;;6.89;100.00;94553.22;10281599;28;19910;-76
2024/03/07 00:50:11;;;;;;;;;;;;;;;6.82;100.00;94545.41;10284909;28;19968;-77
2024/03/07 00:55:12;;;;;;;;;;;;;;;7.37;100.00;94540.75;10304869;28;19940;-80
2024/03/07 01:00:17;;;;;;;0.00;0.00;;;;;;;7.40;100.00;94542.13;10323988;28;19914;-80
2024/03/07 01:05:17;;;;;;;0.00;0.00;;;;;;;7.43;100.00;94536.25;10305058;28;19972;-78
2024/03/07 01:10:18;;;;;;;0.00;0.00;;;;;;;7.20;100.00;94530.22;10304680;28;20373;-77
2024/03/07 01:15:18;;;;;;;0.00;0.00;;;;;;;7.24;100.00;94517.97;10304674;28;20231;-77
2024/03/07 01:20:19;;;;;;;0.00;0.00;;;;;;;6.99;100.00;94519.38;10322142;28;20467;-80
2024/03/07 01:25:21;;;;;;;0.00;0.00;;;;;;;7.01;100.00;94514.56;10321368;28;20537;-81
2024/03/07 01:30:23;;;;;;;0.00;0.00;;;;;;;6.77;100.00;94511.47;10303752;28;20057;-83
2024/03/07 01:35:23;;;;;;;0.00;0.00;;;;;;;6.59;100.00;94514.50;10288216;28;20113;-82
2024/03/07 01:40:24;;;;;;;0.00;0.00;;;;;;;6.60;100.00;94508.91;10302959;28;19980;-77
2024/03/07 01:45:24;;;;;;;0.00;0.00;;;;;;;6.63;100.00;94505.72;10303546;28;20289;-82
2024/03/07 01:50:25;;;;;;;;;;;;;;;6.53;100.00;94504.81;10303282;28;20236;-82
2024/03/07 01:55:27;;;;;;;0.00;0.00;;;;;;;6.44;100.00;94505.28;10303017;28;19914;-87
2024/03/07 02:00:28;;;;;;;0.00;0.00;;;;;;;6.46;100.00;94499.69;10303100;28;20240;-83
2024/03/07 02:05:29;;;;;;;;;;;;;;;6.44;100.00;94501.81;10302872;28;20481;-81
2024/03/07 02:10:29;;;;;;;;;;;;;;;6.31;100.00;94503.03;10302911;28;19922;-84
2024/03/07 02:15:30;;;;;;;;;;;;;;;6.23;100.00;94522.16;10320612;28;20047;-77
2024/03/07 02:20:30;;;;;;;;;;;;;;;5.89;100.00;94519.59;10305380;28;20048;-78
2024/03/07 02:25:31;;;;;;;0.00;0.00;;;;;;;5.80;100.00;94505.91;10321078;28;19957;-80
2024/03/07 02:30:32;;;;;;;0.00;0.00;;;;;;;5.73;100.00;94507.97;10320676;28;20129;-83
2024/03/07 02:35:34;;;;;;;0.00;0.00;;;;;;;5.56;100.00;94503.47;10310809;28;20616;-83
2024/03/07 02:40:35;;;;;;;0.00;0.00;;;;;;;5.49;100.00;94508.19;10318244;28;20400;-74
2024/03/07 02:45:35;;;;;;;0.00;0.00;;;;;;;5.43;100.00;94509.19;10331029;28;20037;-75
2024/03/07 02:50:39;;;;;;;0.00;0.00;;;;;;;5.53;100.00;94505.84;10323009;28;20034;-76
2024/03/07 02:55:39;;;;;;;;;;;;;;;5.29;100.00;94514.06;10326073;28;20662;-76
2024/03/07 03:00:39;;;;;;;0.00;0.00;;;;;;;5.24;100.00;94512.13;10327718;28;19959;-75
2024/03/07 03:05:39;;;;;;;;;;;;;;;5.14;100.00;94520.75;10328708;28;19917;-82
2024/03/07 03:10:41;;;;;;;;;;;;;;;5.05;100.00;94508.09;10345431;28;19920;-76
2024/03/07 03:15:41;;;;;;;;;;;;;;;5.04;100.00;94523.28;10310039;28;19983;-79
2024/03/07 03:20:43;;;;;;;;;;;;;;;5.14;100.00;94526.09;10340838;28;19913;-77
2024/03/07 03:25:43;;;;;;;;;;;;;;;5.09;100.00;94522.56;10323013;28;19910;-79
2024/03/07 03:30:44;;;;;;;0.00;0.00;;;;;;;5.01;100.00;94526.44;10324199;28;20029;-82
2024/03/07 03:35:46;;;;;;;0.00;0.00;;;;;;;5.00;100.00;94532.03;10308670;28;19932;-80
2024/03/07 03:40:47;;;;;;;0.00;0.00;;;;;;;4.97;100.00;94535.97;10325431;28;20113;-76
2024/03/07 03:45:47;;;;;;;0.00;0.00;;;;;;;5.03;100.00;94556.28;10307230;28;20262;-80
2024/03/07 03:50:48;;;;;;;0.00;0.00;;;;;;;5.17;100.00;94546.13;10325406;28;20396;-80
2024/03/07 03:55:48;;;;;;;0.00;0.00;;;;;;;4.94;100.00;94494.66;10324986;28;20085;-80
2024/03/07 04:00:49;;;;;;;0.00;0.00;;;;;;;4.83;100.00;94519.50;10307305;28;20532;-78
2024/03/07 04:05:49;;;;;;;0.00;0.00;;;;;;;4.61;100.00;94522.88;10344902;28;20030;-78
2024/03/07 04:10:50;;;;;;;0.00;0.00;;;;;;;4.44;100.00;94527.38;10344327;28;20071;-76
2024/03/07 04:15:51;;;;;;;0.00;0.00;;;;;;;4.37;100.00;94537.38;10347712;28;20541;-81
2024/03/07 04:20:51;;;;;;;0.00;0.00;;;;;;;4.38;100.00;94538.97;10365346;28;20272;-78
2024/03/07 04:25:52;;;;;;;0.00;0.00;;;;;;;4.50;100.00;94541.59;10338042;28;20045;-80
2024/03/07 04:30:53;;;;;;;;;;;;;;;4.57;100.00;94545.69;10363455;28;20079;-79
2024/03/07 04:35:53;;;;;;;;;;;;;;;4.54;100.00;94540.06;10375916;28;19921;-76
2024/03/07 04:40:53;;;;;;;;;;;;;;;4.55;100.00;94534.50;10347542;28;19917;-76
2024/03/07 04:45:54;;;;;;;;;;;;;;;4.55;100.00;94542.47;10346787;28;19913;-82
2024/03/07 04:50:55;;;;;;;;;;;;;;;4.38;100.00;94541.63;10358721;28;19925;-79
2024/03/07 04:55:56;;;;;;;;;;;;;;;4.26;100.00;94547.00;10358246;28;19917;-75
2024/03/07 05:00:56;;;;;;;;;;;;;;;4.42;100.00;94548.09;10310853;28;19917;-77
2024/03/07 05:05:57;;;;;;;0.00;0.00;;;;;;;4.48;100.00;94555.13;10305487;28;19914;-76
2024/03/07 05:10:57;;;;;;;;;;;;;;;4.53;100.00;94573.03;10321055;28;19918;-75
2024/03/07 05:15:57;;;;;;;;;;;;;;;4.58;100.00;94571.28;10321329;28;19917;-80
2024/03/07 05:21:23;;;;;;;;;;;;;;;4.71;100.00;94570.16;10321473;28;20379;-80
2024/03/07 05:26:18;;;;;;;0.00;0.00;;;;;;;4.55;100.00;94563.78;10335567;28;19925;-81
2024/03/07 05:31:19;;;;;;;0.00;0.00;;;;;;;4.51;100.00;94551.16;10313803;28;19909;-80
2024/03/07 05:36:20;;;;;;;0.00;0.00;;;;;;;4.45;100.00;94558.25;10289180;28;20094;-80
2024/03/07 05:41:22;;;;;;;;;;;;;;;4.51;100.00;94557.31;10299342;28;20074;-81
2024/03/07 05:46:25;;;;;;;;;;;;;;;4.57;100.00;94572.31;10298732;28;20050;-80
2024/03/07 05:51:25;;;;;;;;;;;;;;;4.75;100.00;94579.28;10296403;28;20040;-76
2024/03/07 05:56:25;;;;;;;;;;;;;;;4.78;100.00;94572.66;10300798;28;19913;-83
2024/03/07 06:01:27;;;;;;;;;;;;;;;4.73;100.00;94575.22;10303179;28;25120;-81
2024/03/07 06:06:28;;;;;;;;;;;;;;;4.78;100.00;94581.44;10302351;28;19910;-83
2024/03/07 06:11:28;;;;;;;;;;;;;;;5.02;100.00;94583.16;10287438;28;19924;-80
2024/03/07 06:16:32;;;;;;;;;;;;;;;5.29;100.00;94583.34;10301844;28;19909;-82
2024/03/07 06:21:32;;;;;;;;;;;;;;;5.31;100.00;94582.03;10303626;28;19914;-79
2024/03/07 06:32:10;;;;;;;;;;;;;;;5.41;100.00;94615.22;10298140;28;19956;-81
2024/03/07 06:37:10;;;;;;;;;;;;;;;5.47;100.00;94607.06;10282013;28;20332;-78
2024/03/07 06:42:10;;;;;;;0.00;0.00;;;;;;;5.49;100.00;94609.47;10267140;28;20316;-80
2024/03/07 06:47:10;;;;;;;0.00;0.00;;;;;;;5.58;100.00;94593.88;10280789;28;20032;-76
2024/03/07 06:52:11;;;;;;;0.00;0.00;;;;;;;5.64;100.00;94609.69;10277857;28;20524;-80
2024/03/07 06:57:11;;;;;;;0.00;0.00;;;;;;;5.77;100.00;94610.41;10302290;28;19916;-79
2024/03/07 07:02:12;;;;;;;0.00;0.00;;;;;;;5.79;100.00;94609.13;10301899;28;20081;-76
2024/03/07 07:07:12;;;;;;;0.00;0.00;;;;;;;5.80;100.00;94593.91;10318254;28;19910;-76
2024/03/07 07:12:14;;;;;;;;;;;;;;;5.82;100.00;94595.28;10301458;28;19913;-73
2024/03/07 07:17:14;;;;;;;;;;;;;;;5.87;100.00;94585.72;10302307;28;19909;-82
2024/03/07 07:22:15;;;;;;;;;;;;;;;5.96;100.00;94574.38;10308907;28;19929;-80
2024/03/07 07:27:15;;;;;;;;;;;;;;;6.27;100.00;94580.13;10309615;28;19910;-76
2024/03/07 07:32:15;;;;;;;;;;;;;;;6.32;100.00;94584.69;10292340;28;20289;-76
2024/03/07 07:37:16;;;;;;;;;;;;;;;6.56;100.00;94569.22;10308770;28;20807;-78
2024/03/07 07:42:16;;;;;;;;;;;;;;;6.74;100.00;94569.91;10308368;28;20423;-76
2024/03/07 07:47:17;;;;;;;;;;;;;;;7.04;100.00;94571.25;10308103;28;20376;-82
2024/03/07 07:52:18;;;;;;;;;;;;;;;7.19;100.00;94561.47;10307474;28;19914;-81
2024/03/07 07:57:18;;;;;;;;;;;;;;;7.23;100.00;94551.09;10307836;28;20368;-81
2024/03/07 08:02:22;;;;;;;;;;;;;;;7.41;100.00;94554.41;10306039;28;19976;-80
2024/03/07 08:07:22;;;;;;;;;;;;;;;7.54;100.00;94559.31;10324566;28;19913;-82
2024/03/07 08:12:22;;;;;;;;;;;;;;;7.69;100.00;94577.34;10305310;28;19909;-80
2024/03/07 08:17:23;;;;;;;;;;;;;;;7.43;100.00;94577.16;10305729;28;20277;-79
2024/03/07 08:22:24;;;;;;;0.00;0.00;;;;;;;7.79;100.00;94581.94;10306648;28;20641;-84
2024/03/07 08:27:25;;;;;;;0.00;0.00;;;;;;;7.91;100.00;94592.41;10306140;28;20045;-75
2024/03/07 08:32:26;;;;;;;0.00;0.00;;;;;;;7.97;100.00;94602.91;10306053;28;20083;-82
2024/03/07 08:37:26;;;;;;;0.00;0.00;;;;;;;8.10;100.00;94606.19;10323455;28;20309;-76
2024/03/07 08:42:27;;;;;;;0.00;0.00;;;;;;;8.02;100.00;94610.97;10305341;28;20092;-79
2024/03/07 08:47:28;;;;;;;0.00;0.00;;;;;;;7.99;100.00;94619.47;10305727;28;20315;-76
2024/03/07 08:52:28;;;;;;;0.00;0.00;;;;;;;8.01;100.00;94624.59;10305593;28;19913;-76
2024/03/07 08:57:29;;;;;;;0.00;0.00;;;;;;;7.98;100.00;94627.78;10305185;28;20030;-78
2024/03/07 09:02:29;;;;;;;0.00;0.00;;;;;;;8.04;100.00;94632.91;10305220;28;20034;-76
2024/03/07 09:07:30;;;;;;;0.00;0.00;;;;;;;8.24;100.00;94620.69;10322404;28;20042;-81
2024/03/07 09:12:30;;;;;;;0.00;0.00;;;;;;;8.28;100.00;94623.66;10305246;28;19964;-74
2024/03/07 09:17:30;;;;;;;0.00;0.00;;;;;;;8.41;100.00;94628.53;10321793;28;20236;-76
2024/03/07 09:22:32;;;;;;;0.00;0.00;;;;;;;8.29;100.00;94644.81;10288448;28;20281;-79
2024/03/07 09:27:32;;;;;;;0.00;0.00;;;;;;;8.26;100.00;94648.03;10321351;28;20494;-79
2024/03/07 09:32:34;;;;;;;0.00;0.00;;;;;;;8.39;100.00;94647.53;10303726;28;20033;-78
2024/03/07 09:37:34;;;;;;;0.00;0.00;;;;;;;8.51;100.00;94643.84;10303422;28;20356;-77
2024/03/07 09:42:37;;;;;;;;;;;;;;;8.73;100.00;94635.63;10303975;28;20304;-75
2024/03/07 09:47:39;;;;;;;0.00;0.00;;;;;;;9.14;100.00;94629.53;10302951;28;19916;-81
2024/03/07 09:52:40;;;;;;;;;;;;;;;9.31;100.00;94640.03;10302561;28;25055;-76
2024/03/07 09:57:45;;;;;;;0.00;0.00;;;;;;;9.59;100.00;94641.38;10319911;28;20000;-76
2024/03/07 10:02:47;;;;;;;0.00;0.00;;;;;;;9.53;100.00;94637.88;10321268;28;20054;-76
2024/03/07 10:07:47;;;;;;;0.00;0.00;;;;;;;9.33;100.00;94630.63;10320786;28;20068;-75
2024/03/07 10:12:49;;;;;;;0.00;0.00;;;;;;;10.05;100.00;94621.72;10302574;28;20583;-77
2024/03/07 10:17:50;;;;;;;0.00;0.00;;;;;;;10.40;100.00;94623.50;10319912;28;20544;-75
2024/03/07 10:22:50;;;;;;;0.00;0.00;;;;;;;10.63;100.00;94609.72;10302267;28;20037;-79
2024/03/07 10:27:51;;;;;;;0.00;0.00;;;;;;;10.55;100.00;94603.84;10302635;28;20030;-77
2024/03/07 10:32:55;;;;;;;0.00;0.00;;;;;;;10.53;100.00;94597.94;10302091;28;20555;-80
2024/03/07 10:37:56;;;;;;;0.00;0.00;;;;;;;10.60;100.00;94594.94;10301179;28;20134;-82
2024/03/07 10:42:57;;;;;;;0.00;0.00;;;;;;;10.56;100.00;94596.56;10302592;28;20038;-76
2024/03/07 10:48:00;;;;;;;0.00;0.00;;;;;;;10.55;100.00;94603.06;10302041;28;20235;-75
2024/03/07 10:53:25;;;;;;;0.00;0.00;;;;;;;10.30;100.00;94598.53;10303483;28;20030;-79
2024/03/07 10:58:42;;;;;;;0.00;0.00;;;;;;;9.95;100.00;94598.38;10310040;28;20030;-78
2024/03/07 11:03:43;;;;;;;0.00;0.00;;;;;;;9.38;100.00;94586.94;10279728;28;20062;-79
2024/03/07 11:08:45;;;;;;;0.00;0.00;;;;;;;9.41;100.00;94589.88;10309229;28;20029;-75
2024/03/07 11:13:47;;;;;;;0.00;0.00;;;;;;;9.24;100.00;94594.72;10309655;28;20049;-75
2024/03/07 11:19:24;;;;;;;0.00;0.00;;;;;;;9.23;100.00;94593.09;10309594;28;19921;-76
2024/03/07 11:24:31;;;;;;;0.00;0.00;;;;;;;8.91;100.00;94582.63;10231966;28;19917;-76
2024/03/07 11:29:37;;;;;;;0.00;0.00;;;;;;;9.20;100.00;94590.94;10326747;28;20058;-77
2024/03/07 11:34:41;;;;;;;0.00;0.00;;;;;;;9.33;100.00;94589.59;10307488;28;20034;-77
2024/03/07 11:39:43;;;;;;;0.00;0.00;;;;;;;9.17;100.00;94586.13;10309531;28;20507;-75
2024/03/07 11:44:44;;;;;;;0.00;0.00;;;;;;;9.17;100.00;94576.19;10314666;28;20128;-80
2024/03/07 11:49:48;;;;;;;0.00;0.00;;;;;;;9.33;100.00;94574.31;10336580;28;20025;-81
2024/03/07 11:54:49;;;;;;;0.00;0.00;;;;;;;9.40;100.00;94574.03;10307773;28;20018;-81
2024/03/07 11:59:52;;;;;;;0.00;0.00;;;;;;;9.27;100.00;94562.00;10307429;28;20030;-80
2024/03/07 12:04:52;;;;;;;0.00;0.00;;;;;;;9.41;100.00;94554.19;10332853;28;20022;-82
2024/03/07 12:09:56;;;;;;;0.00;0.00;;;;;;;9.61;100.00;94557.94;10325589;28;20564;-75
2024/03/07 12:14:56;;;;;;;0.00;0.00;;;;;;;9.66;100.00;94550.66;10306755;28;20038;-75
2024/03/07 12:20:01;;;;;;;0.00;0.00;;;;;;;9.85;100.00;94555.44;10306418;28;20073;-77
2024/03/07 12:25:03;;;;;;;0.00;0.00;;;;;;;9.57;100.00;94546.91;10305862;28;20030;-76
2024/03/07 12:30:16;;;;;;;0.00;0.00;;;;;;;9.38;100.00;94550.16;10306290;28;19910;-78
2024/03/07 12:35:16;;;;;;;0.00;0.00;;;;;;;9.48;100.00;94548.56;10323636;28;20591;-74
2024/03/07 12:40:20;;;;;;;0.00;0.00;;;;;;;9.67;100.00;94548.78;10306313;28;20030;-75
2024/03/07 12:45:20;;;;;;;0.00;0.00;;;;;;;9.52;100.00;94544.25;10306620;28;20085;-80
2024/03/07 12:50:21;;;;;;;0.00;0.00;;;;;;;9.66;100.00;94541.81;10305553;28;20029;-75
2024/03/07 12:55:21;;;;;;;0.00;0.00;;;;;;;9.54;100.00;94532.19;10305540;28;20068;-84
2024/03/07 13:00:22;;;;;;;0.00;0.00;;;;;;;9.46;100.00;94540.78;10304633;28;20034;-76
2024/03/07 13:05:22;;;;;;;0.00;0.00;;;;;;;9.49;100.00;94542.09;10304762;28;20286;-79
2024/03/07 13:10:23;;;;;;;0.00;0.00;;;;;;;9.46;100.00;94530.06;10304877;28;20091;-81
2024/03/07 13:15:25;;;;;;;0.00;0.00;;;;;;;9.40;100.00;94537.31;10304457;28;20022;-76
2024/03/07 13:20:26;;;;;;;0.00;0.00;;;;;;;9.47;100.00;94546.94;10272647;28;20691;-84
2024/03/07 13:25:29;;;;;;;0.00;0.00;;;;;;;9.58;100.00;94537.81;10305217;28;20736;-81
2024/03/07 13:30:30;;;;;;;0.00;0.00;;;;;;;9.63;100.00;94539.66;10320775;28;20231;-77
2024/03/07 13:35:30;;;;;;;0.00;0.00;;;;;;;9.55;100.00;94549.88;10303632;28;20100;-76
2024/03/07 13:40:31;;;;;;;0.00;0.00;;;;;;;9.27;100.00;94545.91;10304285;28;20235;-81
2024/03/07 13:45:39;;;;;;;0.00;0.00;;;;;;;9.16;100.00;94545.09;10302796;28;20299;-79
2024/03/07 13:50:44;;;;;;;0.00;0.00;;;;;;;8.90;100.00;94555.00;10303437;28;20022;-79
2024/03/07 13:56:12;;;;;;;0.00;0.00;;;;;;;8.92;100.00;94557.41;10320481;28;20026;-76
2024/03/07 14:01:36;;;;;;;0.00;0.00;;;;;;;8.52;100.00;94557.88;10303233;28;20030;-76
2024/03/07 14:06:42;;;;;;;0.00;0.00;;;;;;;8.05;100.00;94566.78;10303036;28;20034;-75
2024/03/07 14:12:20;;;;;;;0.00;0.00;;;;;;;8.28;100.00;94562.88;10302535;28;20513;-79
2024/03/07 14:17:53;;;;;;;0.00;0.00;;;;;;;7.82;100.00;94563.47;10302025;28;20615;-79
2024/03/07 14:23:13;;;;;;;0.00;0.00;;;;;;;7.25;100.00;94570.34;10320166;28;20142;-77
2024/03/07 14:28:20;;;;;;;0.00;0.00;;;;;;;7.18;100.00;94577.78;10302402;28;20032;-76
2024/03/07 14:33:26;;;;;;;0.00;0.00;;;;;;;6.84;100.00;94586.03;10321211;28;20235;-81
2024/03/07 14:38:39;;;;;;;0.00;0.00;;;;;;;6.76;100.00;94589.16;10292488;28;20078;-75
2024/03/07 14:43:41;;;;;;;0.00;0.00;;;;;;;6.69;100.00;94593.91;10278611;28;20027;-77
2024/03/07 14:48:41;;;;;;;0.00;0.00;;;;;;;6.60;100.00;94598.88;10277764;28;19914;-76
2024/03/07 14:53:42;;;;;;;0.00;0.00;;;;;;;6.58;100.00;94615.16;10285643;28;19918;-77
2024/03/07 14:58:43;;;;;;;0.00;0.00;;;;;;;6.44;100.00;94620.06;10300909;28;20045;-76
2024/03/07 15:03:45;;;;;;;0.00;0.00;;;;;;;6.71;100.00;94613.16;10299402;28;20037;-80
2024/03/07 15:08:49;;;;;;;0.00;0.00;;;;;;;6.94;100.00;94599.47;10298632;28;20270;-77
2024/03/07 15:13:49;;;;;;;0.00;0.00;;;;;;;7.03;100.00;94596.34;10299042;28;20511;-76
2024/03/07 15:18:50;;;;;;;0.00;0.00;;;;;;;7.05;100.00;94596.91;10300078;28;20027;-80
2024/03/07 15:23:50;;;;;;;0.00;0.00;;;;;;;7.18;100.00;94612.50;10298255;28;20045;-82
2024/03/07 15:28:51;;;;;;;0.00;0.00;;;;;;;7.16;100.00;94614.66;10295963;28;20026;-79
2024/03/07 15:33:52;;;;;;;0.00;0.00;;;;;;;7.13;100.00;94625.81;10295800;28;20348;-78
2024/03/07 15:38:52;;;;;;;0.00;0.00;;;;;;;7.03;100.00;94631.88;10297932;28;20252;-80
2024/03/07 15:43:52;;;;;;;0.00;0.00;;;;;;;7.00;100.00;94632.41;10306401;28;20331;-76
2024/03/07 15:48:53;;;;;;;0.00;0.00;;;;;;;6.96;100.00;94644.66;10306113;28;20255;-77
2024/03/07 15:53:54;;;;;;;0.00;0.00;;;;;;;6.95;100.00;94649.19;10323357;28;20289;-76
2024/03/07 15:58:54;;;;;;;0.00;0.00;;;;;;;6.94;100.00;94652.91;10323381;28;20169;-76
2024/03/07 16:03:55;;;;;;;0.00;0.00;;;;;;;6.93;100.00;94651.28;10289890;28;20041;-81
2024/03/07 16:08:55;;;;;;;0.00;0.00;;;;;;;6.95;100.00;94659.06;10304819;28;20012;-81
2024/03/07 16:13:56;;;;;;;0.00;0.00;;;;;;;6.93;100.00;94650.50;10305469;28;20092;-80
2024/03/07 16:18:57;;;;;;;0.00;0.00;;;;;;;6.94;100.00;94652.91;10323413;28;20008;-80
2024/03/07 16:23:57;;;;;;;;;;;;;;;6.83;100.00;94665.34;10313159;28;20038;-78
2024/03/07 16:28:57;;;;;;;0.00;0.00;;;;;;;6.96;100.00;94664.19;10321715;28;19918;-79
2024/03/07 16:33:58;;;;;;;;;;;;;;;6.97;100.00;94668.44;10298673;28;20144;-82
2024/03/07 16:38:59;;;;;;;;;;;;;;;7.00;100.00;94665.28;10305178;28;25072;-76
2024/03/07 16:44:01;;;;;;;;;;;;;;;6.85;100.00;94673.13;10292027;28;20372;-77
2024/03/07 16:49:02;;;;;;;;;;;;;;;6.94;100.00;94679.63;10282576;28;19913;-78
2024/03/07 16:54:02;;;;;;;0.00;0.00;;;;;;;6.89;100.00;94684.91;10286160;28;20388;-79
2024/03/07 16:59:04;;;;;;;0.00;0.00;;;;;;;6.87;100.00;94681.69;10284589;28;19972;-77
2024/03/07 17:04:05;;;;;;;0.00;0.00;;;;;;;6.95;100.00;94689.28;10258829;28;20220;-79
2024/03/07 17:09:10;;;;;;;0.00;0.00;;;;;;;6.94;100.00;94687.66;10270748;28;20472;-78
2024/03/07 17:14:13;;;;;;;0.00;0.00;;;;;;;6.95;100.00;94691.94;10280428;28;20034;-78
2024/03/07 17:19:15;;;;;;;0.00;0.00;;;;;;;6.84;100.00;94692.91;10277064;28;20050;-76
2024/03/07 17:24:16;;;;;;;0.00;0.00;;;;;;;6.35;100.00;94695.50;10282131;28;20035;-77
2024/03/07 17:29:17;;;;;;;0.00;0.00;;;;;;;6.14;100.00;94701.38;10270203;28;20103;-79
2024/03/07 17:34:17;;;;;;;0.00;0.00;;;;;;;5.59;100.00;94700.25;10289781;28;20034;-76
2024/03/07 17:39:19;;;;;;;0.00;0.00;;;;;;;5.40;100.00;94701.53;10282386;28;20106;-76
2024/03/07 17:44:19;;;;;;;0.00;0.00;;;;;;;5.26;100.00;94712.53;10284159;28;20618;-76
2024/03/07 17:49:23;;;;;;;0.00;0.00;;;;;;;5.16;100.00;94722.19;10266145;28;19916;-77
2024/03/07 17:54:27;;;;;;;0.00;0.00;;;;;;;4.90;100.00;94714.53;10282757;28;20485;-77
2024/03/07 17:59:27;;;;;;;0.00;0.00;;;;;;;4.62;100.00;94712.69;10294507;28;20078;-78
2024/03/07 18:04:28;;;;;;;0.00;0.00;;;;;;;4.49;100.00;94719.06;10277219;28;20031;-76
2024/03/07 18:09:28;;;;;;;0.00;0.00;;;;;;;4.44;100.00;94730.41;10291367;28;20340;-77
2024/03/07 18:14:32;;;;;;;0.00;0.00;;;;;;;4.51;100.00;94724.97;10274172;28;19996;-76
2024/03/07 18:19:36;;;;;;;0.00;0.00;;;;;;;4.61;100.00;94729.69;10278518;28;20244;-74
2024/03/07 18:24:36;;;;;;;0.00;0.00;;;;;;;4.59;100.00;94727.25;10272742;28;20043;-75
2024/03/07 18:29:39;;;;;;;0.00;0.00;;;;;;;4.54;100.00;94731.69;10284341;28;20026;-71
2024/03/07 18:34:39;;;;;;;0.00;0.00;;;;;;;4.60;100.00;94728.88;10295573;28;20270;-79
2024/03/07 18:39:43;;;;;;;0.00;0.00;;;;;;;4.61;100.00;94733.16;10269663;28;20477;-77
2024/03/07 18:44:46;;;;;;;0.00;0.00;;;;;;;4.64;100.00;94718.56;10275397;28;20949;-78
2024/03/07 18:49:50;;;;;;;0.00;0.00;;;;;;;4.59;100.00;94724.59;10298363;28;20085;-76
2024/03/07 18:54:53;;;;;;;0.00;0.00;;;;;;;4.55;100.00;94728.78;10289937;28;20030;-79
2024/03/07 18:59:53;;;;;;;0.00;0.00;;;;;;;4.64;100.00;94731.88;10284691;28;20073;-79
2024/03/07 19:04:53;;;;;;;0.00;0.00;;;;;;;4.80;100.00;94725.00;10271963;28;20085;-79
2024/03/07 19:09:54;;;;;;;0.00;0.00;;;;;;;4.79;100.00;94728.72;10281698;28;20893;-77
2024/03/07 19:14:54;;;;;;;0.00;0.00;;;;;;;4.76;100.00;94723.88;10273470;28;20097;-88
2024/03/07 19:19:55;;;;;;;0.00;0.00;;;;;;;4.64;100.00;94728.41;10280655;28;20309;-80
2024/03/07 19:24:55;;;;;;;0.00;0.00;;;;;;;4.57;100.00;94732.00;10278119;28;20071;-77
2024/03/07 19:29:55;;;;;;;0.00;0.00;;;;;;;4.61;100.00;94737.66;10342376;22;20316;-88
2024/03/07 19:34:58;;;;;;;0.00;0.00;;;;;;;4.65;100.00;94740.66;10389552;28;20287;-85
2024/03/07 19:39:58;;;;;;;0.00;0.00;;;;;;;4.70;100.00;94735.44;10376525;28;20036;-84
2024/03/07 19:45:00;;;;;;;0.00;0.00;;;;;;;4.73;100.00;94740.28;10374038;28;20499;-78
2024/03/07 19:50:03;;;;;;;0.00;0.00;;;;;;;4.51;100.00;94740.94;10382241;28;20555;-81
2024/03/07 19:55:07;;;;;;;0.00;0.00;;;;;;;4.44;100.00;94735.75;10366688;28;19917;-81
2024/03/07 20:00:08;;;;;;;0.00;0.00;;;;;;;4.53;100.00;94738.84;10399606;28;20029;-79
2024/03/07 20:05:11;;;;;;;0.00;0.00;;;;;;;4.63;100.00;94738.22;10385276;28;20017;-80
2024/03/07 20:10:13;;;;;;;0.00;0.00;;;;;;;4.68;100.00;94743.66;10384486;28;20052;-80
2024/03/07 20:15:13;;;;;;;0.00;0.00;;;;;;;4.60;100.00;94747.53;10382452;28;20117;-78
2024/03/07 20:20:14;;;;;;;0.00;0.00;;;;;;;4.71;100.00;94745.06;10370224;28;20649;-78
2024/03/07 20:25:15;;;;;;;0.00;0.00;;;;;;;4.56;100.00;94743.72;10386598;28;20551;-78
2024/03/07 20:30:16;;;;;;;0.00;0.00;;;;;;;4.67;100.00;94744.69;10387055;28;20067;-78
2024/03/07 20:35:19;;;;;;;0.00;0.00;;;;;;;4.69;100.00;94747.13;10369151;28;19920;-78
2024/03/07 20:40:23;;;;;;;0.00;0.00;;;;;;;4.73;100.00;94751.78;10386655;28;20068;-78
2024/03/07 20:45:24;;;;;;;0.00;0.00;;;;;;;4.76;100.00;94748.63;10386448;28;20543;-77
2024/03/07 20:50:25;;;;;;;0.00;0.00;;;;;;;4.73;100.00;94748.28;10385603;28;20585;-78
2024/03/07 20:55:28;;;;;;;0.00;0.00;;;;;;;4.80;100.00;94751.63;10387755;28;20584;-79
2024/03/07 21:00:33;;;;;;;0.00;0.00;;;;;;;4.84;100.00;94751.97;10389014;28;20230;-78
2024/03/07 21:05:36;;;;;;;0.00;0.00;;;;;;;4.86;100.00;94756.00;10368234;28;20026;-77
2024/03/07 21:10:38;;;;;;;0.00;0.00;;;;;;;4.98;100.00;94753.28;10384665;28;20103;-78
2024/03/07 21:15:39;;;;;;;0.00;0.00;;;;;;;5.05;100.00;94755.81;10383895;28;20038;-77
2024/03/07 21:20:42;;;;;;;0.00;0.00;;;;;;;5.03;100.00;94768.56;10384207;28;20021;-76
2024/03/07 21:25:42;;;;;;;0.00;0.00;;;;;;;5.13;100.00;94763.44;10384205;28;20752;-76
2024/03/07 21:30:42;;;;;;;;;;;;;;;5.15;100.00;94766.69;10381409;28;19924;-77
2024/03/07 21:35:44;;;;;;;;;;;;;;;5.11;100.00;94761.00;10383270;28;20352;-78
2024/03/07 21:40:47;;;;;;;;;;;;;;;5.16;100.00;94759.50;10383900;28;19913;-77
2024/03/07 21:45:48;;;;;;;;;;;;;;;5.22;100.00;94764.69;10365587;28;19913;-76
2024/03/07 21:50:48;;;;;;;;;;;;;;;5.17;100.00;94761.91;10366148;28;19917;-77
2024/03/07 21:55:49;;;;;;;;;;;;;;;5.12;100.00;94769.78;10384225;28;19924;-76
2024/03/07 22:00:53;;;;;;;;;;;;;;;5.19;100.00;94772.31;10386188;28;20579;-76
2024/03/07 22:05:53;;;;;;;;;;;;;;;5.16;100.00;94770.94;10383288;28;19920;-77
2024/03/07 22:10:53;;;;;;;0.00;0.00;;;;;;;5.26;100.00;94771.16;10365451;28;19909;-78
2024/03/07 22:15:54;;;;;;;0.00;0.00;;;;;;;5.21;100.00;94768.38;10383403;28;20028;-78
2024/03/07 22:20:54;;;;;;;0.00;0.00;;;;;;;5.21;100.00;94762.25;10382953;28;20061;-78
2024/03/07 22:25:54;;;;;;;0.00;0.00;;;;;;;5.20;100.00;94769.41;10382526;28;20480;-77
2024/03/07 22:30:55;;;;;;;0.00;0.00;;;;;;;5.26;100.00;94763.16;10364292;28;20288;-78
2024/03/07 22:35:55;;;;;;;0.00;0.00;;;;;;;5.33;100.00;94763.00;10382541;28;20351;-78
2024/03/07 22:40:55;;;;;;;0.00;0.00;;;;;;;5.37;100.00;94766.00;10382793;28;20079;-79
2024/03/07 22:45:56;;;;;;;0.00;0.00;;;;;;;5.38;100.00;94759.63;10380514;28;20574;-77
2024/03/07 22:50:57;;;;;;;0.00;0.00;;;;;;;5.43;100.00;94763.19;10388156;28;20419;-78
2024/03/07 22:55:57;;;;;;;0.00;0.00;;;;;;;5.44;100.00;94761.31;10391142;28;20024;-76
2024/03/07 23:00:57;;;;;;;0.00;0.00;;;;;;;5.39;100.00;94761.25;10372831;28;20272;-77
2024/03/07 23:05:58;;;;;;;0.00;0.00;;;;;;;5.25;100.00;94769.53;10372103;28;20096;-78
2024/03/07 23:10:58;;;;;;;0.00;0.00;;;;;;;5.22;100.00;94770.00;10371287;28;20037;-77
2024/03/07 23:15:59;;;;;;;0.00;0.00;;;;;;;5.33;100.00;94772.84;10371945;28;20029;-77
2024/03/07 23:21:01;;;;;;;0.00;0.00;;;;;;;5.40;100.00;94777.00;10389434;28;20029;-77
2024/03/07 23:26:02;;;;;;;0.00;0.00;;;;;;;5.39;100.00;94774.56;10389725;28;20088;-77
2024/03/07 23:31:03;;;;;;;0.00;0.00;;;;;;;5.43;100.00;94787.16;10388784;28;20096;-77
2024/03/07 23:36:05;;;;;;;0.00;0.00;;;;;;;5.36;100.00;94781.19;10392258;28;20445;-78
2024/03/07 23:41:05;;;;;;;0.00;0.00;;;;;;;5.50;100.00;94783.53;10388620;28;20044;-78
2024/03/07 23:46:05;;;;;;;0.00;0.00;;;;;;;5.52;100.00;94792.91;10388217;28;20029;-78
2024/03/07 23:51:06;;;;;;;0.00;0.00;;;;;;;5.38;100.00;94796.94;10387525;28;20088;-78
2024/03/07 23:56:07;;;;;;;0.00;0.00;;;;;;;5.57;100.00;94798.34;10388136;28;20030;-78
